sensor_id;sensor_type;location;lat;lon;timestamp;temperature;humidity
23207;DHT22;11773;52.570;13.052;2023-02-04T00:01:26;5.10;99.90
23207;DHT22;11773;52.570;13.052;2023-02-04T00:03:56;4.90;99.90
23207;DHT22;11773;52.570;13.052;2023-02-04T00:06:25;5.00;99.90
23207;DHT22;11773;52.570;13.052;2023-02-04T00:08:54;5.10;99.90
23207;DHT22;11773;52.570;13.052;2023-02-04T00:11:24;5.20;99.90
23207;DHT22;11773;52.570;13.052;2023-02-04T00:13:53;5.20;99.90
23207;DHT22;11773;52.570;13.052;2023-02-04T00:16:23;5.20;99.90
23207;DHT22;11773;52.570;13.052;2023-02-04T00:18:53;5.20;99.90
23207;DHT22;11773;52.570;13.052;2023-02-04T00:21:22;5.00;99.90
23207;DHT22;11773;52.570;13.052;2023-02-04T00:23:52;5.10;99.90
23207;DHT22;11773;52.570;13.052;2023-02-04T00:26:23;5.20;99.90
23207;DHT22;11773;52.570;13.052;2023-02-04T00:28:53;5.10;99.90
23207;DHT22;11773;52.570;13.052;2023-02-04T00:31:22;5.20;99.90
23207;DHT22;11773;52.570;13.052;2023-02-04T00:33:52;5.00;99.90
23207;DHT22;11773;52.570;13.052;2023-02-04T00:36:22;5.00;99.90
23207;DHT22;11773;52.570;13.052;2023-02-04T00:38:51;5.00;99.90
23207;DHT22;11773;52.570;13.052;2023-02-04T00:41:20;4.80;99.90
23207;DHT22;11773;52.570;13.052;2023-02-04T00:43:50;4.90;99.90
23207;DHT22;11773;52.570;13.052;2023-02-04T00:46:19;4.90;99.90
23207;DHT22;11773;52.570;13.052;2023-02-04T00:48:49;5.00;99.90
23207;DHT22;11773;52.570;13.052;2023-02-04T00:51:18;5.00;99.90
23207;DHT22;11773;52.570;13.052;2023-02-04T00:53:48;5.00;99.90
23207;DHT22;11773;52.570;13.052;2023-02-04T00:56:17;4.90;99.90
23207;DHT22;11773;52.570;13.052;2023-02-04T00:58:47;4.80;99.90
23207;DHT22;11773;52.570;13.052;2023-02-04T01:01:16;4.70;99.90
23207;DHT22;11773;52.570;13.052;2023-02-04T01:03:46;4.40;99.90
23207;DHT22;11773;52.570;13.052;2023-02-04T01:06:15;4.30;99.90
23207;DHT22;11773;52.570;13.052;2023-02-04T01:08:45;4.30;99.90
23207;DHT22;11773;52.570;13.052;2023-02-04T01:11:14;4.30;99.90
23207;DHT22;11773;52.570;13.052;2023-02-04T01:13:44;4.20;99.90
23207;DHT22;11773;52.570;13.052;2023-02-04T01:16:14;4.40;99.90
23207;DHT22;11773;52.570;13.052;2023-02-04T01:18:44;4.20;99.90
23207;DHT22;11773;52.570;13.052;2023-02-04T01:21:13;4.40;99.90
23207;DHT22;11773;52.570;13.052;2023-02-04T01:23:43;4.30;99.90
23207;DHT22;11773;52.570;13.052;2023-02-04T01:26:12;4.20;99.90
23207;DHT22;11773;52.570;13.052;2023-02-04T01:28:42;4.20;99.90
23207;DHT22;11773;52.570;13.052;2023-02-04T01:31:12;4.20;99.90
23207;DHT22;11773;52.570;13.052;2023-02-04T01:33:42;4.30;99.90
23207;DHT22;11773;52.570;13.052;2023-02-04T01:36:11;4.30;99.90
23207;DHT22;11773;52.570;13.052;2023-02-04T01:38:41;4.20;99.90
23207;DHT22;11773;52.570;13.052;2023-02-04T01:41:10;4.40;99.90
23207;DHT22;11773;52.570;13.052;2023-02-04T01:43:40;4.20;99.90
23207;DHT22;11773;52.570;13.052;2023-02-04T01:46:09;4.30;99.90
23207;DHT22;11773;52.570;13.052;2023-02-04T01:48:39;4.30;99.90
23207;DHT22;11773;52.570;13.052;2023-02-04T01:51:11;4.10;99.90
23207;DHT22;11773;52.570;13.052;2023-02-04T01:53:43;4.10;99.90
23207;DHT22;11773;52.570;13.052;2023-02-04T01:56:24;3.90;99.90
23207;DHT22;11773;52.570;13.052;2023-02-04T01:58:56;4.00;99.90
23207;DHT22;11773;52.570;13.052;2023-02-04T02:01:43;3.90;99.90
23207;DHT22;11773;52.570;13.052;2023-02-04T02:04:19;3.90;99.90
23207;DHT22;11773;52.570;13.052;2023-02-04T02:06:54;3.90;99.90
23207;DHT22;11773;52.570;13.052;2023-02-04T02:09:26;3.90;99.90
23207;DHT22;11773;52.570;13.052;2023-02-04T02:11:57;3.90;99.90
23207;DHT22;11773;52.570;13.052;2023-02-04T02:14:28;4.00;99.90
23207;DHT22;11773;52.570;13.052;2023-02-04T02:16:57;4.10;99.90
23207;DHT22;11773;52.570;13.052;2023-02-04T02:19:31;4.20;99.90
23207;DHT22;11773;52.570;13.052;2023-02-04T02:22:22;4.10;99.90
23207;DHT22;11773;52.570;13.052;2023-02-04T02:24:53;4.00;99.90
23207;DHT22;11773;52.570;13.052;2023-02-04T02:27:22;4.20;99.90
23207;DHT22;11773;52.570;13.052;2023-02-04T02:29:52;4.30;99.90
23207;DHT22;11773;52.570;13.052;2023-02-04T02:32:21;4.20;99.90
23207;DHT22;11773;52.570;13.052;2023-02-04T02:34:51;4.10;99.90
23207;DHT22;11773;52.570;13.052;2023-02-04T02:37:20;4.40;99.90
23207;DHT22;11773;52.570;13.052;2023-02-04T02:39:50;4.00;99.90
23207;DHT22;11773;52.570;13.052;2023-02-04T02:42:19;4.20;99.90
23207;DHT22;11773;52.570;13.052;2023-02-04T02:44:49;4.20;99.90
23207;DHT22;11773;52.570;13.052;2023-02-04T02:47:21;4.30;99.90
23207;DHT22;11773;52.570;13.052;2023-02-04T02:49:52;4.30;99.90
23207;DHT22;11773;52.570;13.052;2023-02-04T02:52:22;4.20;99.90
23207;DHT22;11773;52.570;13.052;2023-02-04T02:54:52;4.30;99.90
23207;DHT22;11773;52.570;13.052;2023-02-04T02:57:22;4.30;99.90
23207;DHT22;11773;52.570;13.052;2023-02-04T02:59:52;4.20;99.90
23207;DHT22;11773;52.570;13.052;2023-02-04T03:02:23;4.20;99.90
23207;DHT22;11773;52.570;13.052;2023-02-04T03:04:55;4.10;99.90
23207;DHT22;11773;52.570;13.052;2023-02-04T03:07:27;4.10;99.90
23207;DHT22;11773;52.570;13.052;2023-02-04T03:09:57;4.10;99.90
23207;DHT22;11773;52.570;13.052;2023-02-04T03:12:26;4.20;99.90
23207;DHT22;11773;52.570;13.052;2023-02-04T03:14:56;4.20;99.90
23207;DHT22;11773;52.570;13.052;2023-02-04T03:17:25;4.20;99.90
23207;DHT22;11773;52.570;13.052;2023-02-04T03:19:55;4.00;99.90
23207;DHT22;11773;52.570;13.052;2023-02-04T03:22:25;3.90;99.90
23207;DHT22;11773;52.570;13.052;2023-02-04T03:24:55;4.00;99.90
23207;DHT22;11773;52.570;13.052;2023-02-04T03:27:25;4.10;99.90
23207;DHT22;11773;52.570;13.052;2023-02-04T03:29:54;4.00;99.90
23207;DHT22;11773;52.570;13.052;2023-02-04T03:32:24;4.10;99.90
23207;DHT22;11773;52.570;13.052;2023-02-04T03:34:54;3.90;99.90
23207;DHT22;11773;52.570;13.052;2023-02-04T03:37:23;4.00;99.90
23207;DHT22;11773;52.570;13.052;2023-02-04T03:39:53;3.80;99.90
23207;DHT22;11773;52.570;13.052;2023-02-04T03:42:22;3.80;99.90
23207;DHT22;11773;52.570;13.052;2023-02-04T03:44:52;3.70;99.90
23207;DHT22;11773;52.570;13.052;2023-02-04T03:47:21;3.80;99.90
23207;DHT22;11773;52.570;13.052;2023-02-04T03:49:51;3.90;99.90
23207;DHT22;11773;52.570;13.052;2023-02-04T03:52:20;3.80;99.90
23207;DHT22;11773;52.570;13.052;2023-02-04T03:54:50;3.60;99.90
23207;DHT22;11773;52.570;13.052;2023-02-04T03:57:19;3.50;99.90
23207;DHT22;11773;52.570;13.052;2023-02-04T03:59:49;3.40;99.90
23207;DHT22;11773;52.570;13.052;2023-02-04T04:02:18;3.50;99.90
23207;DHT22;11773;52.570;13.052;2023-02-04T04:04:48;3.70;99.90
23207;DHT22;11773;52.570;13.052;2023-02-04T04:07:17;3.70;99.90
23207;DHT22;11773;52.570;13.052;2023-02-04T04:09:47;3.70;99.90
23207;DHT22;11773;52.570;13.052;2023-02-04T04:12:16;3.80;99.90
23207;DHT22;11773;52.570;13.052;2023-02-04T04:14:45;3.80;99.90
23207;DHT22;11773;52.570;13.052;2023-02-04T04:17:15;3.70;99.90
23207;DHT22;11773;52.570;13.052;2023-02-04T04:19:44;3.80;99.90
23207;DHT22;11773;52.570;13.052;2023-02-04T04:22:16;3.80;99.90
23207;DHT22;11773;52.570;13.052;2023-02-04T04:24:45;3.70;99.90
23207;DHT22;11773;52.570;13.052;2023-02-04T04:27:15;3.60;99.90
23207;DHT22;11773;52.570;13.052;2023-02-04T04:29:44;3.70;99.90
23207;DHT22;11773;52.570;13.052;2023-02-04T04:32:14;3.80;99.90
23207;DHT22;11773;52.570;13.052;2023-02-04T04:34:43;3.90;99.90
23207;DHT22;11773;52.570;13.052;2023-02-04T04:37:13;3.80;99.90
23207;DHT22;11773;52.570;13.052;2023-02-04T04:39:43;3.90;99.90
23207;DHT22;11773;52.570;13.052;2023-02-04T04:42:12;3.80;99.90
23207;DHT22;11773;52.570;13.052;2023-02-04T04:44:41;3.70;99.90
23207;DHT22;11773;52.570;13.052;2023-02-04T04:47:11;3.60;99.90
23207;DHT22;11773;52.570;13.052;2023-02-04T04:49:40;3.50;99.90
23207;DHT22;11773;52.570;13.052;2023-02-04T04:52:10;3.50;99.90
23207;DHT22;11773;52.570;13.052;2023-02-04T04:54:39;3.40;99.90
23207;DHT22;11773;52.570;13.052;2023-02-04T04:57:09;3.50;99.90
23207;DHT22;11773;52.570;13.052;2023-02-04T04:59:38;3.60;99.90
23207;DHT22;11773;52.570;13.052;2023-02-04T05:02:08;3.60;99.90
23207;DHT22;11773;52.570;13.052;2023-02-04T05:04:37;3.60;99.90
23207;DHT22;11773;52.570;13.052;2023-02-04T05:07:07;3.50;99.90
23207;DHT22;11773;52.570;13.052;2023-02-04T05:09:36;3.40;99.90
23207;DHT22;11773;52.570;13.052;2023-02-04T05:12:06;3.50;99.90
23207;DHT22;11773;52.570;13.052;2023-02-04T05:14:35;3.60;99.90
23207;DHT22;11773;52.570;13.052;2023-02-04T05:17:05;3.50;99.90
23207;DHT22;11773;52.570;13.052;2023-02-04T05:19:34;3.50;99.90
23207;DHT22;11773;52.570;13.052;2023-02-04T05:22:04;3.30;99.90
23207;DHT22;11773;52.570;13.052;2023-02-04T05:24:33;3.30;99.90
23207;DHT22;11773;52.570;13.052;2023-02-04T05:27:02;3.20;99.90
23207;DHT22;11773;52.570;13.052;2023-02-04T05:29:32;3.30;99.90
23207;DHT22;11773;52.570;13.052;2023-02-04T05:32:01;3.20;99.90
23207;DHT22;11773;52.570;13.052;2023-02-04T05:34:31;3.10;99.90
23207;DHT22;11773;52.570;13.052;2023-02-04T05:37:00;3.20;99.90
23207;DHT22;11773;52.570;13.052;2023-02-04T05:39:30;3.30;99.90
23207;DHT22;11773;52.570;13.052;2023-02-04T05:42:00;3.40;99.90
23207;DHT22;11773;52.570;13.052;2023-02-04T05:44:29;3.30;99.90
23207;DHT22;11773;52.570;13.052;2023-02-04T05:46:59;3.40;99.90
23207;DHT22;11773;52.570;13.052;2023-02-04T05:49:28;3.40;99.90
23207;DHT22;11773;52.570;13.052;2023-02-04T05:51:58;3.50;99.90
23207;DHT22;11773;52.570;13.052;2023-02-04T05:54:27;3.40;99.90
23207;DHT22;11773;52.570;13.052;2023-02-04T05:56:57;3.40;99.90
23207;DHT22;11773;52.570;13.052;2023-02-04T05:59:26;3.40;99.90
23207;DHT22;11773;52.570;13.052;2023-02-04T06:01:56;3.50;99.90
23207;DHT22;11773;52.570;13.052;2023-02-04T06:04:25;3.60;99.90
23207;DHT22;11773;52.570;13.052;2023-02-04T06:06:55;3.50;99.90
23207;DHT22;11773;52.570;13.052;2023-02-04T06:09:24;3.40;99.90
23207;DHT22;11773;52.570;13.052;2023-02-04T06:11:54;3.40;99.90
23207;DHT22;11773;52.570;13.052;2023-02-04T06:14:24;3.40;99.90
23207;DHT22;11773;52.570;13.052;2023-02-04T06:16:56;3.50;99.90
23207;DHT22;11773;52.570;13.052;2023-02-04T06:19:26;3.50;99.90
23207;DHT22;11773;52.570;13.052;2023-02-04T06:21:56;3.50;99.90
23207;DHT22;11773;52.570;13.052;2023-02-04T06:24:25;3.40;99.90
23207;DHT22;11773;52.570;13.052;2023-02-04T06:26:54;3.40;99.90
23207;DHT22;11773;52.570;13.052;2023-02-04T06:29:24;3.40;99.90
23207;DHT22;11773;52.570;13.052;2023-02-04T06:31:53;3.50;99.90
23207;DHT22;11773;52.570;13.052;2023-02-04T06:34:23;3.40;99.90
23207;DHT22;11773;52.570;13.052;2023-02-04T06:36:53;3.40;99.90
23207;DHT22;11773;52.570;13.052;2023-02-04T06:39:22;3.50;99.90
23207;DHT22;11773;52.570;13.052;2023-02-04T06:41:52;3.40;99.90
23207;DHT22;11773;52.570;13.052;2023-02-04T06:44:21;3.40;99.90
23207;DHT22;11773;52.570;13.052;2023-02-04T06:46:51;3.40;99.90
23207;DHT22;11773;52.570;13.052;2023-02-04T06:49:20;3.40;99.90
23207;DHT22;11773;52.570;13.052;2023-02-04T06:51:51;3.40;99.90
23207;DHT22;11773;52.570;13.052;2023-02-04T06:54:21;3.30;99.90
23207;DHT22;11773;52.570;13.052;2023-02-04T06:56:51;3.40;99.90
23207;DHT22;11773;52.570;13.052;2023-02-04T06:59:22;3.40;99.90
23207;DHT22;11773;52.570;13.052;2023-02-04T07:01:53;3.40;99.90
23207;DHT22;11773;52.570;13.052;2023-02-04T07:04:23;3.30;99.90
23207;DHT22;11773;52.570;13.052;2023-02-04T07:06:53;3.50;99.90
23207;DHT22;11773;52.570;13.052;2023-02-04T07:09:22;3.40;99.90
23207;DHT22;11773;52.570;13.052;2023-02-04T07:11:51;3.40;99.90
23207;DHT22;11773;52.570;13.052;2023-02-04T07:14:21;3.40;99.90
23207;DHT22;11773;52.570;13.052;2023-02-04T07:16:50;3.50;99.90
23207;DHT22;11773;52.570;13.052;2023-02-04T07:19:21;3.30;99.90
23207;DHT22;11773;52.570;13.052;2023-02-04T07:21:52;3.40;99.90
23207;DHT22;11773;52.570;13.052;2023-02-04T07:24:23;3.30;99.90
23207;DHT22;11773;52.570;13.052;2023-02-04T07:26:53;3.40;99.90
23207;DHT22;11773;52.570;13.052;2023-02-04T07:29:23;3.40;99.90
23207;DHT22;11773;52.570;13.052;2023-02-04T07:31:52;3.30;99.90
23207;DHT22;11773;52.570;13.052;2023-02-04T07:34:22;3.30;99.90
23207;DHT22;11773;52.570;13.052;2023-02-04T07:36:52;3.40;99.90
23207;DHT22;11773;52.570;13.052;2023-02-04T07:39:21;3.30;99.90
23207;DHT22;11773;52.570;13.052;2023-02-04T07:41:51;3.40;99.90
23207;DHT22;11773;52.570;13.052;2023-02-04T07:44:21;3.40;99.90
23207;DHT22;11773;52.570;13.052;2023-02-04T07:46:50;3.40;99.90
23207;DHT22;11773;52.570;13.052;2023-02-04T07:49:19;3.30;99.90
23207;DHT22;11773;52.570;13.052;2023-02-04T07:51:49;3.30;99.90
23207;DHT22;11773;52.570;13.052;2023-02-04T07:54:18;3.30;99.90
23207;DHT22;11773;52.570;13.052;2023-02-04T07:56:48;3.40;99.90
23207;DHT22;11773;52.570;13.052;2023-02-04T07:59:17;3.50;99.90
23207;DHT22;11773;52.570;13.052;2023-02-04T08:01:47;3.40;99.90
23207;DHT22;11773;52.570;13.052;2023-02-04T08:04:16;3.50;99.90
23207;DHT22;11773;52.570;13.052;2023-02-04T08:06:46;3.50;99.90
23207;DHT22;11773;52.570;13.052;2023-02-04T08:09:16;3.50;99.90
23207;DHT22;11773;52.570;13.052;2023-02-04T08:11:45;3.70;99.90
23207;DHT22;11773;52.570;13.052;2023-02-04T08:14:15;3.70;99.90
23207;DHT22;11773;52.570;13.052;2023-02-04T08:16:44;3.80;99.90
23207;DHT22;11773;52.570;13.052;2023-02-04T08:19:14;3.80;99.90
23207;DHT22;11773;52.570;13.052;2023-02-04T08:21:45;3.90;99.90
23207;DHT22;11773;52.570;13.052;2023-02-04T08:24:15;3.70;99.90
23207;DHT22;11773;52.570;13.052;2023-02-04T08:26:45;3.80;99.90
23207;DHT22;11773;52.570;13.052;2023-02-04T08:29:14;3.70;99.90
23207;DHT22;11773;52.570;13.052;2023-02-04T08:31:44;3.70;99.90
23207;DHT22;11773;52.570;13.052;2023-02-04T08:34:16;3.80;99.90
23207;DHT22;11773;52.570;13.052;2023-02-04T08:36:45;3.90;99.90
23207;DHT22;11773;52.570;13.052;2023-02-04T08:39:14;3.90;99.90
23207;DHT22;11773;52.570;13.052;2023-02-04T08:41:44;3.90;99.90
23207;DHT22;11773;52.570;13.052;2023-02-04T08:44:15;3.90;99.90
23207;DHT22;11773;52.570;13.052;2023-02-04T08:46:45;4.00;99.90
23207;DHT22;11773;52.570;13.052;2023-02-04T08:49:14;4.10;99.90
23207;DHT22;11773;52.570;13.052;2023-02-04T08:51:44;4.10;99.90
23207;DHT22;11773;52.570;13.052;2023-02-04T08:54:13;4.20;99.90
23207;DHT22;11773;52.570;13.052;2023-02-04T08:56:43;4.20;99.90
23207;DHT22;11773;52.570;13.052;2023-02-04T08:59:12;4.20;99.90
23207;DHT22;11773;52.570;13.052;2023-02-04T09:01:42;4.00;99.90
23207;DHT22;11773;52.570;13.052;2023-02-04T09:04:14;4.10;99.90
23207;DHT22;11773;52.570;13.052;2023-02-04T09:06:43;4.20;99.90
23207;DHT22;11773;52.570;13.052;2023-02-04T09:09:13;4.00;99.90
23207;DHT22;11773;52.570;13.052;2023-02-04T09:11:43;4.10;99.90
23207;DHT22;11773;52.570;13.052;2023-02-04T09:14:13;4.20;99.90
23207;DHT22;11773;52.570;13.052;2023-02-04T09:16:43;4.30;99.90
23207;DHT22;11773;52.570;13.052;2023-02-04T09:19:13;4.20;99.90
23207;DHT22;11773;52.570;13.052;2023-02-04T09:21:43;4.20;99.90
23207;DHT22;11773;52.570;13.052;2023-02-04T09:24:12;4.30;99.90
23207;DHT22;11773;52.570;13.052;2023-02-04T09:26:42;4.20;99.90
23207;DHT22;11773;52.570;13.052;2023-02-04T09:29:11;4.20;99.90
23207;DHT22;11773;52.570;13.052;2023-02-04T09:31:41;4.30;99.90
23207;DHT22;11773;52.570;13.052;2023-02-04T09:34:10;4.30;99.90
23207;DHT22;11773;52.570;13.052;2023-02-04T09:36:40;4.30;99.90
23207;DHT22;11773;52.570;13.052;2023-02-04T09:39:09;4.20;99.90
23207;DHT22;11773;52.570;13.052;2023-02-04T09:41:39;4.30;99.90
23207;DHT22;11773;52.570;13.052;2023-02-04T09:44:17;4.50;99.90
23207;DHT22;11773;52.570;13.052;2023-02-04T09:46:49;4.50;99.90
23207;DHT22;11773;52.570;13.052;2023-02-04T09:49:20;4.30;99.90
23207;DHT22;11773;52.570;13.052;2023-02-04T09:51:50;4.30;99.90
23207;DHT22;11773;52.570;13.052;2023-02-04T09:54:22;4.20;99.90
23207;DHT22;11773;52.570;13.052;2023-02-04T09:56:52;4.40;99.90
23207;DHT22;11773;52.570;13.052;2023-02-04T09:59:25;4.40;99.90
23207;DHT22;11773;52.570;13.052;2023-02-04T10:02:03;4.50;99.90
23207;DHT22;11773;52.570;13.052;2023-02-04T10:04:36;4.60;99.90
23207;DHT22;11773;52.570;13.052;2023-02-04T10:07:08;4.70;99.90
23207;DHT22;11773;52.570;13.052;2023-02-04T10:09:40;4.70;99.90
23207;DHT22;11773;52.570;13.052;2023-02-04T10:12:09;4.60;99.90
23207;DHT22;11773;52.570;13.052;2023-02-04T10:14:39;4.70;99.90
23207;DHT22;11773;52.570;13.052;2023-02-04T10:17:09;4.60;99.90
23207;DHT22;11773;52.570;13.052;2023-02-04T10:19:40;4.60;99.90
23207;DHT22;11773;52.570;13.052;2023-02-04T10:22:15;4.70;99.90
23207;DHT22;11773;52.570;13.052;2023-02-04T10:24:46;4.80;99.90
23207;DHT22;11773;52.570;13.052;2023-02-04T10:27:16;4.80;99.90
23207;DHT22;11773;52.570;13.052;2023-02-04T10:29:56;4.90;99.90
23207;DHT22;11773;52.570;13.052;2023-02-04T10:32:29;5.00;99.90
23207;DHT22;11773;52.570;13.052;2023-02-04T10:35:00;4.90;99.90
23207;DHT22;11773;52.570;13.052;2023-02-04T10:37:30;5.00;99.90
23207;DHT22;11773;52.570;13.052;2023-02-04T10:40:00;5.10;99.90
23207;DHT22;11773;52.570;13.052;2023-02-04T10:42:30;4.90;99.90
23207;DHT22;11773;52.570;13.052;2023-02-04T10:45:00;4.90;99.90
23207;DHT22;11773;52.570;13.052;2023-02-04T10:47:29;5.10;99.90
23207;DHT22;11773;52.570;13.052;2023-02-04T10:50:04;5.20;99.90
23207;DHT22;11773;52.570;13.052;2023-02-04T10:52:48;5.20;99.90
23207;DHT22;11773;52.570;13.052;2023-02-04T10:55:21;5.20;99.90
23207;DHT22;11773;52.570;13.052;2023-02-04T10:57:52;5.40;99.90
23207;DHT22;11773;52.570;13.052;2023-02-04T11:00:23;5.50;99.90
23207;DHT22;11773;52.570;13.052;2023-02-04T11:03:11;5.30;99.90
23207;DHT22;11773;52.570;13.052;2023-02-04T11:05:45;5.20;99.90
23207;DHT22;11773;52.570;13.052;2023-02-04T11:08:35;5.30;99.90
23207;DHT22;11773;52.570;13.052;2023-02-04T11:13:45;5.30;99.90
23207;DHT22;11773;52.570;13.052;2023-02-04T11:16:26;5.30;99.90
23207;DHT22;11773;52.570;13.052;2023-02-04T11:19:02;5.20;99.90
23207;DHT22;11773;52.570;13.052;2023-02-04T11:26:52;5.30;99.90
23207;DHT22;11773;52.570;13.052;2023-02-04T11:29:32;5.40;99.90
23207;DHT22;11773;52.570;13.052;2023-02-04T11:32:26;5.20;99.90
23207;DHT22;11773;52.570;13.052;2023-02-04T11:37:44;5.20;99.90
23207;DHT22;11773;52.570;13.052;2023-02-04T11:40:33;5.20;99.90
23207;DHT22;11773;52.570;13.052;2023-02-04T11:43:14;5.20;99.90
23207;DHT22;11773;52.570;13.052;2023-02-04T11:45:43;5.00;99.90
23207;DHT22;11773;52.570;13.052;2023-02-04T11:48:20;5.20;99.90
23207;DHT22;11773;52.570;13.052;2023-02-04T11:51:02;5.00;99.90
23207;DHT22;11773;52.570;13.052;2023-02-04T11:53:31;5.00;99.90
23207;DHT22;11773;52.570;13.052;2023-02-04T11:56:01;5.10;99.90
23207;DHT22;11773;52.570;13.052;2023-02-04T11:58:32;5.10;99.90
23207;DHT22;11773;52.570;13.052;2023-02-04T12:01:01;5.40;99.90
23207;DHT22;11773;52.570;13.052;2023-02-04T12:03:32;5.40;99.90
23207;DHT22;11773;52.570;13.052;2023-02-04T12:06:02;5.50;99.90
23207;DHT22;11773;52.570;13.052;2023-02-04T12:08:34;5.60;99.90
23207;DHT22;11773;52.570;13.052;2023-02-04T12:11:08;5.40;99.90
23207;DHT22;11773;52.570;13.052;2023-02-04T12:13:49;5.50;99.90
23207;DHT22;11773;52.570;13.052;2023-02-04T12:16:20;5.40;99.90
23207;DHT22;11773;52.570;13.052;2023-02-04T12:18:50;5.30;99.90
23207;DHT22;11773;52.570;13.052;2023-02-04T12:21:19;5.40;99.90
23207;DHT22;11773;52.570;13.052;2023-02-04T12:23:49;5.40;99.90
23207;DHT22;11773;52.570;13.052;2023-02-04T12:26:18;5.70;99.90
23207;DHT22;11773;52.570;13.052;2023-02-04T12:28:48;5.80;99.90
23207;DHT22;11773;52.570;13.052;2023-02-04T12:31:17;5.90;99.90
23207;DHT22;11773;52.570;13.052;2023-02-04T12:33:47;5.90;99.90
23207;DHT22;11773;52.570;13.052;2023-02-04T12:36:16;5.80;99.90
23207;DHT22;11773;52.570;13.052;2023-02-04T12:38:46;5.80;99.90
23207;DHT22;11773;52.570;13.052;2023-02-04T12:41:15;5.60;99.90
23207;DHT22;11773;52.570;13.052;2023-02-04T12:43:46;5.50;99.90
23207;DHT22;11773;52.570;13.052;2023-02-04T12:46:17;5.40;99.90
23207;DHT22;11773;52.570;13.052;2023-02-04T12:48:47;5.30;99.90
23207;DHT22;11773;52.570;13.052;2023-02-04T12:51:16;5.40;99.90
23207;DHT22;11773;52.570;13.052;2023-02-04T12:53:48;5.20;99.90
23207;DHT22;11773;52.570;13.052;2023-02-04T12:56:17;5.40;99.90
23207;DHT22;11773;52.570;13.052;2023-02-04T12:58:47;5.50;99.90
23207;DHT22;11773;52.570;13.052;2023-02-04T13:01:16;5.50;99.90
23207;DHT22;11773;52.570;13.052;2023-02-04T13:03:46;5.70;99.90
23207;DHT22;11773;52.570;13.052;2023-02-04T13:06:15;5.70;99.90
23207;DHT22;11773;52.570;13.052;2023-02-04T13:08:45;5.60;99.90
23207;DHT22;11773;52.570;13.052;2023-02-04T13:11:14;5.70;99.90
23207;DHT22;11773;52.570;13.052;2023-02-04T13:13:44;5.70;99.90
23207;DHT22;11773;52.570;13.052;2023-02-04T13:16:13;5.60;99.90
23207;DHT22;11773;52.570;13.052;2023-02-04T13:18:44;5.70;99.90
23207;DHT22;11773;52.570;13.052;2023-02-04T13:21:14;5.50;99.90
23207;DHT22;11773;52.570;13.052;2023-02-04T13:23:43;5.30;99.90
23207;DHT22;11773;52.570;13.052;2023-02-04T13:26:13;5.30;99.90
23207;DHT22;11773;52.570;13.052;2023-02-04T13:28:42;5.50;99.90
23207;DHT22;11773;52.570;13.052;2023-02-04T13:31:12;5.50;99.90
23207;DHT22;11773;52.570;13.052;2023-02-04T13:33:41;5.70;99.90
23207;DHT22;11773;52.570;13.052;2023-02-04T13:36:11;5.80;99.90
23207;DHT22;11773;52.570;13.052;2023-02-04T13:38:40;5.80;99.90
23207;DHT22;11773;52.570;13.052;2023-02-04T13:41:10;5.90;99.90
23207;DHT22;11773;52.570;13.052;2023-02-04T13:43:39;6.00;99.90
23207;DHT22;11773;52.570;13.052;2023-02-04T13:46:09;5.90;99.90
23207;DHT22;11773;52.570;13.052;2023-02-04T13:48:38;5.90;99.90
23207;DHT22;11773;52.570;13.052;2023-02-04T13:51:07;5.80;99.90
23207;DHT22;11773;52.570;13.052;2023-02-04T13:53:37;5.80;99.90
23207;DHT22;11773;52.570;13.052;2023-02-04T13:56:07;5.60;99.90
23207;DHT22;11773;52.570;13.052;2023-02-04T13:58:37;5.80;99.90
23207;DHT22;11773;52.570;13.052;2023-02-04T14:01:09;5.80;99.90
23207;DHT22;11773;52.570;13.052;2023-02-04T14:03:40;5.80;99.90
23207;DHT22;11773;52.570;13.052;2023-02-04T14:06:10;5.70;99.90
23207;DHT22;11773;52.570;13.052;2023-02-04T14:08:40;5.70;99.90
23207;DHT22;11773;52.570;13.052;2023-02-04T14:11:09;5.60;99.90
23207;DHT22;11773;52.570;13.052;2023-02-04T14:13:38;5.50;99.90
23207;DHT22;11773;52.570;13.052;2023-02-04T14:16:08;5.80;99.90
23207;DHT22;11773;52.570;13.052;2023-02-04T14:18:37;5.90;99.90
23207;DHT22;11773;52.570;13.052;2023-02-04T14:21:07;5.70;99.90
23207;DHT22;11773;52.570;13.052;2023-02-04T14:23:36;5.60;99.90
23207;DHT22;11773;52.570;13.052;2023-02-04T14:26:06;5.70;99.90
23207;DHT22;11773;52.570;13.052;2023-02-04T14:28:36;5.60;99.90
23207;DHT22;11773;52.570;13.052;2023-02-04T14:31:05;5.20;99.90
23207;DHT22;11773;52.570;13.052;2023-02-04T14:33:35;5.20;99.90
23207;DHT22;11773;52.570;13.052;2023-02-04T14:36:04;5.30;99.90
23207;DHT22;11773;52.570;13.052;2023-02-04T14:38:34;5.30;99.90
23207;DHT22;11773;52.570;13.052;2023-02-04T14:41:05;5.20;99.90
23207;DHT22;11773;52.570;13.052;2023-02-04T14:43:34;5.30;99.90
23207;DHT22;11773;52.570;13.052;2023-02-04T14:46:04;5.10;99.90
23207;DHT22;11773;52.570;13.052;2023-02-04T14:48:34;5.20;99.90
23207;DHT22;11773;52.570;13.052;2023-02-04T14:51:03;5.00;99.90
23207;DHT22;11773;52.570;13.052;2023-02-04T14:53:33;5.00;99.90
23207;DHT22;11773;52.570;13.052;2023-02-04T14:56:02;5.10;99.90
23207;DHT22;11773;52.570;13.052;2023-02-04T14:58:32;5.10;99.90
23207;DHT22;11773;52.570;13.052;2023-02-04T15:01:01;5.30;99.90
23207;DHT22;11773;52.570;13.052;2023-02-04T15:03:31;5.20;99.90
23207;DHT22;11773;52.570;13.052;2023-02-04T15:06:00;5.20;99.90
23207;DHT22;11773;52.570;13.052;2023-02-04T15:08:30;5.30;99.90
23207;DHT22;11773;52.570;13.052;2023-02-04T15:10:59;5.30;99.90
23207;DHT22;11773;52.570;13.052;2023-02-04T15:13:29;5.10;99.90
23207;DHT22;11773;52.570;13.052;2023-02-04T15:15:59;5.30;99.90
23207;DHT22;11773;52.570;13.052;2023-02-04T15:18:30;5.60;99.90
23207;DHT22;11773;52.570;13.052;2023-02-04T15:20:59;5.60;99.90
23207;DHT22;11773;52.570;13.052;2023-02-04T15:23:29;5.60;99.90
23207;DHT22;11773;52.570;13.052;2023-02-04T15:25:59;5.50;99.90
23207;DHT22;11773;52.570;13.052;2023-02-04T15:28:28;5.40;99.90
23207;DHT22;11773;52.570;13.052;2023-02-04T15:30:58;5.20;99.90
23207;DHT22;11773;52.570;13.052;2023-02-04T15:33:29;4.90;99.90
23207;DHT22;11773;52.570;13.052;2023-02-04T15:35:59;5.00;99.90
23207;DHT22;11773;52.570;13.052;2023-02-04T15:38:28;5.10;99.90
23207;DHT22;11773;52.570;13.052;2023-02-04T15:40:58;5.10;99.90
23207;DHT22;11773;52.570;13.052;2023-02-04T15:43:28;5.10;99.90
23207;DHT22;11773;52.570;13.052;2023-02-04T15:45:57;5.20;99.90
23207;DHT22;11773;52.570;13.052;2023-02-04T15:48:27;4.90;99.90
23207;DHT22;11773;52.570;13.052;2023-02-04T15:50:56;4.90;99.90
23207;DHT22;11773;52.570;13.052;2023-02-04T15:53:26;5.00;99.90
23207;DHT22;11773;52.570;13.052;2023-02-04T15:55:55;4.90;99.90
23207;DHT22;11773;52.570;13.052;2023-02-04T15:58:25;4.90;99.90
23207;DHT22;11773;52.570;13.052;2023-02-04T16:00:54;4.90;99.90